Time;durP1;ratioP1;P1;durP2;ratioP2;P2;SDS_P1;SDS_P2;PMS_P1;PMS_P2;Temp;Humidity;BMP_temperature;BMP_pressure;BME280_temperature;BME280_humidity;BME280_pressure;Samples;Min_cycle;Max_cycle;Signal;HPM_P1;HPM_P2
2021/03/29 00:02:19;;;;;;;8.30;3.78;;;9.60;80.80;;;;;;5026392;28;20095;-45
2021/03/29 00:04:48;;;;;;;9.77;4.25;;;9.60;80.40;;;;;;5027535;28;20049;-46
2021/03/29 00:07:21;;;;;;;10.23;3.90;;;9.60;80.70;;;;;;5027328;28;20045;-47
2021/03/29 00:09:48;;;;;;;11.23;3.70;;;9.60;80.90;;;;;;5026826;28;20057;-47
2021/03/29 00:12:18;;;;;;;9.18;4.35;;;9.60;80.50;;;;;;5026753;28;20053;-46
2021/03/29 00:14:44;;;;;;;9.52;3.85;;;9.60;81.10;;;;;;5031726;28;20045;-48
2021/03/29 00:17:13;;;;;;;7.75;3.97;;;9.60;80.70;;;;;;5027545;28;20053;-44
2021/03/29 00:19:40;;;;;;;11.95;4.15;;;9.70;80.40;;;;;;5026916;28;20053;-46
2021/03/29 00:22:09;;;;;;;12.70;4.47;;;9.70;80.30;;;;;;5026827;28;20053;-45
2021/03/29 00:24:39;;;;;;;12.02;4.00;;;9.70;80.40;;;;;;5027775;28;20305;-44
2021/03/29 00:27:06;;;;;;;11.02;4.00;;;9.70;80.60;;;;;;5026631;28;20141;-46
2021/03/29 00:29:32;;;;;;;10.05;4.63;;;9.70;80.00;;;;;;5027731;28;20049;-44
2021/03/29 00:32:01;;;;;;;11.65;4.28;;;9.60;80.80;;;;;;5027373;28;20119;-46
2021/03/29 00:34:28;;;;;;;11.07;3.72;;;9.50;81.00;;;;;;5026923;28;20045;-44
2021/03/29 00:36:54;;;;;;;14.32;4.78;;;9.50;80.90;;;;;;5026734;28;20104;-45
2021/03/29 00:39:21;;;;;;;8.60;3.70;;;9.50;80.90;;;;;;5026914;28;20439;-44
2021/03/29 00:41:53;;;;;;;11.15;4.38;;;9.50;81.40;;;;;;5026931;28;20119;-45
2021/03/29 00:44:22;;;;;;;11.93;4.40;;;9.50;81.00;;;;;;5010669;28;20096;-47
2021/03/29 00:46:49;;;;;;;11.48;5.05;;;9.60;80.90;;;;;;5011812;28;20422;-46
2021/03/29 00:49:15;;;;;;;11.05;4.28;;;9.60;81.10;;;;;;5031498;28;20041;-45
2021/03/29 00:51:44;;;;;;;11.93;4.40;;;9.60;81.30;;;;;;5027111;28;20061;-46
2021/03/29 00:54:11;;;;;;;11.63;4.78;;;9.60;80.90;;;;;;5026910;28;20567;-46
2021/03/29 00:56:40;;;;;;;12.52;4.97;;;9.60;80.90;;;;;;5026845;28;20107;-46
2021/03/29 00:59:07;;;;;;;13.13;4.40;;;9.60;80.60;;;;;;5026873;28;20049;-46
2021/03/29 01:01:52;;;;;;;9.55;3.97;;;9.60;80.70;;;;;;5026940;28;20099;-46
2021/03/29 01:04:18;;;;;;;9.82;4.65;;;9.70;81.10;;;;;;5026787;28;20667;-46
2021/03/29 01:06:47;;;;;;;12.60;4.82;;;9.60;80.80;;;;;;5033737;28;20046;-47
2021/03/29 01:09:20;;;;;;;14.80;5.00;;;9.70;80.80;;;;;;5027120;28;20054;-45
2021/03/29 01:12:16;;;;;;;12.75;4.32;;;9.60;81.00;;;;;;5026986;28;20175;-48
2021/03/29 01:14:51;;;;;;;10.38;4.63;;;9.70;80.60;;;;;;5025670;28;20812;-47
2021/03/29 01:17:27;;;;;;;10.48;4.25;;;9.70;80.70;;;;;;5027118;28;20099;-48
2021/03/29 01:19:56;;;;;;;9.82;4.50;;;9.70;80.30;;;;;;5027087;28;20761;-46
2021/03/29 01:22:27;;;;;;;10.73;4.60;;;9.70;80.40;;;;;;5026621;28;20088;-46
2021/03/29 01:25:03;;;;;;;9.73;3.70;;;9.70;80.60;;;;;;5028352;28;20124;-46
2021/03/29 01:27:47;;;;;;;12.00;4.97;;;9.70;80.70;;;;;;5029383;28;20041;-48
2021/03/29 01:30:14;;;;;;;11.93;4.03;;;9.70;80.10;;;;;;5026665;28;20049;-46
2021/03/29 01:32:44;;;;;;;11.27;4.55;;;9.80;79.70;;;;;;5026863;28;20053;-52
2021/03/29 01:35:33;;;;;;;9.20;4.10;;;9.70;80.20;;;;;;5021186;28;20402;-49
2021/03/29 01:38:00;;;;;;;10.55;4.10;;;9.80;79.70;;;;;;5017016;28;20120;-46
2021/03/29 01:40:28;;;;;;;11.43;5.10;;;9.90;79.10;;;;;;5030384;28;20079;-48
2021/03/29 01:42:55;;;;;;;13.02;4.72;;;9.90;79.30;;;;;;5029802;28;20045;-49
2021/03/29 01:45:22;;;;;;;11.40;4.45;;;9.90;79.10;;;;;;5032549;28;20041;-46
2021/03/29 01:47:51;;;;;;;9.93;3.97;;;9.90;79.60;;;;;;5037639;28;20052;-50
2021/03/29 01:50:23;;;;;;;11.35;4.22;;;9.80;79.50;;;;;;5031618;28;20494;-45
2021/03/29 01:52:52;;;;;;;12.32;4.60;;;9.80;79.60;;;;;;5032898;28;20046;-49
2021/03/29 01:55:18;;;;;;;8.05;4.82;;;9.90;79.10;;;;;;5029894;28;20136;-50
2021/03/29 01:57:44;;;;;;;9.77;4.68;;;9.90;79.10;;;;;;5034228;28;20200;-47
2021/03/29 02:00:17;;;;;;;10.93;5.38;;;9.90;79.20;;;;;;5030000;28;20049;-48
2021/03/29 02:02:43;;;;;;;10.68;4.30;;;10.00;78.60;;;;;;5030124;28;20057;-49
2021/03/29 02:05:13;;;;;;;14.50;5.60;;;9.90;79.00;;;;;;5030210;28;20054;-47
2021/03/29 02:07:42;;;;;;;14.73;6.05;;;9.90;79.20;;;;;;5030927;28;20049;-48
2021/03/29 02:10:17;;;;;;;13.98;5.80;;;9.90;79.00;;;;;;5032510;28;20561;-48
2021/03/29 02:12:44;;;;;;;11.10;5.07;;;10.00;78.10;;;;;;5030892;28;20049;-47
2021/03/29 02:15:17;;;;;;;11.68;5.07;;;10.00;78.80;;;;;;5029871;28;20053;-48
2021/03/29 02:17:50;;;;;;;12.30;5.50;;;9.90;78.30;;;;;;5010396;28;20157;-48
2021/03/29 02:20:17;;;;;;;11.98;5.65;;;9.90;78.30;;;;;;5015953;28;20131;-49
2021/03/29 02:22:46;;;;;;;10.32;5.78;;;9.90;78.80;;;;;;5014293;28;20047;-49
2021/03/29 02:25:13;;;;;;;12.32;5.38;;;10.00;77.70;;;;;;5029002;28;20053;-46
2021/03/29 02:27:39;;;;;;;9.68;5.65;;;10.00;78.00;;;;;;5029565;28;20085;-50
2021/03/29 02:30:20;;;;;;;10.02;5.40;;;9.90;78.30;;;;;;5029936;28;20137;-50
2021/03/29 02:32:48;;;;;;;12.50;5.90;;;9.90;78.40;;;;;;5030007;28;20128;-49
2021/03/29 02:35:16;;;;;;;14.43;6.20;;;10.00;78.00;;;;;;5011798;28;20111;-48
2021/03/29 02:37:50;;;;;;;14.27;5.53;;;9.90;78.30;;;;;;5029602;28;20061;-47
2021/03/29 02:40:22;;;;;;;10.77;5.75;;;10.00;77.70;;;;;;5029865;28;20049;-50
2021/03/29 02:42:49;;;;;;;10.07;5.72;;;10.00;78.00;;;;;;5031735;28;20072;-47
2021/03/29 02:45:18;;;;;;;14.93;5.70;;;9.90;78.10;;;;;;5031361;28;20525;-46
2021/03/29 02:47:46;;;;;;;14.85;6.47;;;10.00;78.20;;;;;;5029570;28;20050;-46
2021/03/29 02:50:17;;;;;;;11.98;5.47;;;9.90;78.20;;;;;;5028450;28;20064;-49
2021/03/29 02:52:46;;;;;;;13.73;5.85;;;9.90;78.30;;;;;;5029217;28;20131;-49
2021/03/29 02:55:16;;;;;;;13.20;6.15;;;9.90;78.50;;;;;;5028351;28;20077;-48
2021/03/29 02:57:45;;;;;;;15.32;6.43;;;9.90;78.50;;;;;;5028296;28;20165;-47
2021/03/29 03:00:15;;;;;;;11.98;6.60;;;9.90;78.20;;;;;;5029404;28;20400;-50
2021/03/29 03:02:43;;;;;;;11.98;5.85;;;9.90;78.30;;;;;;5029229;28;20049;-48
2021/03/29 03:05:10;;;;;;;14.45;6.72;;;9.90;78.90;;;;;;5029251;28;20323;-47
2021/03/29 03:07:37;;;;;;;13.65;6.20;;;9.90;78.00;;;;;;5028399;28;20060;-46
2021/03/29 03:10:11;;;;;;;12.48;6.57;;;9.90;78.80;;;;;;5029297;28;20144;-48
2021/03/29 03:12:40;;;;;;;15.30;6.35;;;9.90;78.50;;;;;;5028832;28;20053;-47
2021/03/29 03:15:09;;;;;;;17.45;7.70;;;9.90;78.40;;;;;;5028235;28;20494;-46
2021/03/29 03:17:38;;;;;;;14.15;6.82;;;9.80;78.20;;;;;;5011256;28;20060;-45
2021/03/29 03:20:10;;;;;;;13.15;7.15;;;9.80;78.40;;;;;;5032919;28;20072;-47
2021/03/29 03:22:36;;;;;;;12.30;6.90;;;9.80;78.50;;;;;;5034784;28;20041;-47
2021/03/29 03:25:25;;;;;;;13.77;6.57;;;9.70;79.50;;;;;;5028458;28;20053;-50
2021/03/29 03:27:53;;;;;;;13.88;7.25;;;9.70;79.00;;;;;;5016057;28;20134;-47
2021/03/29 03:30:27;;;;;;;13.45;7.00;;;9.60;79.00;;;;;;5028403;28;20246;-47
2021/03/29 03:32:55;;;;;;;13.68;6.55;;;9.60;79.10;;;;;;5027355;28;20073;-48
2021/03/29 03:35:23;;;;;;;16.65;7.97;;;9.60;78.80;;;;;;5028391;28;20516;-48
2021/03/29 03:38:08;;;;;;;13.57;8.02;;;9.70;78.50;;;;;;5027417;28;20053;-50
2021/03/29 03:40:40;;;;;;;15.68;7.97;;;9.70;78.40;;;;;;5034751;28;20129;-49
2021/03/29 03:43:07;;;;;;;14.63;7.33;;;9.60;78.90;;;;;;5028095;28;20103;-48
2021/03/29 03:46:21;;;;;;;13.55;7.82;;;9.60;79.20;;;;;;5027494;28;20493;-46
2021/03/29 03:48:51;;;;;;;13.33;8.40;;;9.60;79.10;;;;;;5019102;28;20502;-47
2021/03/29 03:51:18;;;;;;;13.95;7.65;;;9.60;79.20;;;;;;5024289;28;20638;-47
2021/03/29 03:53:46;;;;;;;12.60;7.70;;;9.60;79.30;;;;;;5016058;28;20152;-50
2021/03/29 03:56:14;;;;;;;14.23;7.55;;;9.60;79.00;;;;;;5035528;28;20041;-49
2021/03/29 03:58:41;;;;;;;13.82;6.88;;;9.50;79.20;;;;;;5028074;28;20072;-47
2021/03/29 04:01:08;;;;;;;13.27;7.95;;;9.60;79.30;;;;;;5027324;28;20124;-46
2021/03/29 04:03:35;;;;;;;15.93;7.65;;;9.50;79.40;;;;;;5027352;28;20520;-46
2021/03/29 04:06:02;;;;;;;14.25;7.72;;;9.60;79.20;;;;;;5027646;28;20060;-47
2021/03/29 04:08:28;;;;;;;13.65;6.68;;;9.50;79.50;;;;;;5027917;28;20512;-47
2021/03/29 04:10:57;;;;;;;14.15;6.90;;;9.60;79.20;;;;;;5027784;28;20050;-49
2021/03/29 04:13:30;;;;;;;16.13;7.35;;;9.60;79.40;;;;;;5022902;28;20042;-48
2021/03/29 04:15:59;;;;;;;14.25;8.32;;;9.60;79.40;;;;;;5027675;28;20535;-48
2021/03/29 04:18:25;;;;;;;13.20;7.03;;;9.50;79.60;;;;;;5033700;28;20052;-45
2021/03/29 04:20:52;;;;;;;12.02;7.63;;;9.60;79.60;;;;;;5027171;28;20442;-48
2021/03/29 04:23:21;;;;;;;15.25;7.63;;;9.60;79.40;;;;;;5027029;28;20126;-49
2021/03/29 04:25:47;;;;;;;15.40;8.35;;;9.60;79.70;;;;;;5027069;28;20136;-46
2021/03/29 04:28:16;;;;;;;15.20;7.70;;;9.60;79.70;;;;;;5026808;28;20153;-46
2021/03/29 04:30:42;;;;;;;15.23;7.30;;;9.50;80.00;;;;;;5027584;28;20054;-48
2021/03/29 04:33:08;;;;;;;15.45;8.00;;;9.60;79.70;;;;;;5026724;28;20053;-47
2021/03/29 04:35:34;;;;;;;12.55;7.32;;;9.50;79.80;;;;;;5027379;28;20103;-49
2021/03/29 04:38:03;;;;;;;15.20;7.90;;;9.50;80.30;;;;;;5026864;28;20080;-47
2021/03/29 04:40:32;;;;;;;20.15;9.10;;;9.40;80.70;;;;;;5026886;28;20131;-47
2021/03/29 04:42:59;;;;;;;14.07;8.18;;;9.40;80.60;;;;;;5026987;28;20103;-47
2021/03/29 04:45:25;;;;;;;14.73;8.57;;;9.40;80.70;;;;;;5027299;28;20124;-46
2021/03/29 04:47:54;;;;;;;13.63;8.13;;;9.30;81.00;;;;;;5026971;28;20049;-47
2021/03/29 04:50:22;;;;;;;14.60;8.27;;;9.40;81.00;;;;;;5011070;28;20053;-48
2021/03/29 04:52:53;;;;;;;15.05;8.05;;;9.40;81.00;;;;;;5033662;28;20498;-47
2021/03/29 04:55:20;;;;;;;10.80;8.45;;;9.30;81.00;;;;;;5027284;28;20061;-48
2021/03/29 04:57:46;;;;;;;13.82;8.23;;;9.30;81.10;;;;;;5026615;28;20062;-47
2021/03/29 05:00:13;;;;;;;14.75;8.48;;;9.30;81.40;;;;;;5026498;28;20046;-49
2021/03/29 05:02:40;;;;;;;16.90;8.45;;;9.30;81.30;;;;;;5026968;28;20053;-48
2021/03/29 05:05:07;;;;;;;14.48;8.00;;;9.20;81.60;;;;;;5026948;28;20060;-50
2021/03/29 05:07:32;;;;;;;13.80;8.73;;;9.20;81.90;;;;;;5027572;28;20049;-51
2021/03/29 05:10:03;;;;;;;15.50;9.02;;;9.20;81.90;;;;;;5026265;28;20805;-54
2021/03/29 05:12:28;;;;;;;16.98;8.35;;;9.10;82.30;;;;;;5023272;28;20049;-53
2021/03/29 05:14:56;;;;;;;13.93;9.05;;;9.10;82.30;;;;;;5028783;28;20057;-55
2021/03/29 05:17:27;;;;;;;15.77;8.02;;;9.20;82.20;;;;;;5028709;28;20095;-51
2021/03/29 05:19:53;;;;;;;19.17;8.27;;;9.10;82.20;;;;;;5028572;28;20053;-51
2021/03/29 05:22:22;;;;;;;17.30;8.70;;;9.10;82.20;;;;;;5028650;28;20053;-54
2021/03/29 05:24:48;;;;;;;21.20;9.93;;;9.00;82.60;;;;;;5028387;28;20586;-53
2021/03/29 05:27:14;;;;;;;16.35;8.55;;;9.10;83.40;;;;;;5032054;28;20045;-52
2021/03/29 05:29:43;;;;;;;21.75;10.27;;;9.10;83.10;;;;;;5028730;28;20069;-54
2021/03/29 05:32:17;;;;;;;15.43;8.48;;;9.00;83.00;;;;;;5029212;28;20068;-50
2021/03/29 05:34:46;;;;;;;16.33;9.15;;;9.00;83.00;;;;;;5025321;28;20138;-53
2021/03/29 05:37:16;;;;;;;18.40;8.38;;;9.00;83.10;;;;;;5032580;28;20134;-51
2021/03/29 05:39:46;;;;;;;16.15;9.43;;;9.00;83.10;;;;;;5029727;28;20049;-51
2021/03/29 05:42:12;;;;;;;18.27;8.80;;;9.00;83.30;;;;;;5028541;28;20045;-53
2021/03/29 05:44:42;;;;;;;16.23;8.50;;;9.10;83.20;;;;;;5030384;28;20049;-51
2021/03/29 05:47:14;;;;;;;15.45;9.07;;;9.10;83.10;;;;;;5032221;28;20056;-50
2021/03/29 05:49:43;;;;;;;14.88;8.60;;;9.10;83.30;;;;;;5026597;28;20103;-50
2021/03/29 05:52:10;;;;;;;16.25;8.55;;;9.10;83.20;;;;;;5027428;28;20088;-54
2021/03/29 05:54:40;;;;;;;14.93;7.95;;;9.10;83.30;;;;;;5007432;28;20132;-52
2021/03/29 05:57:06;;;;;;;18.63;11.75;;;9.10;83.30;;;;;;5015536;28;20498;-56
2021/03/29 06:02:01;;;;;;;19.58;11.80;;;9.20;82.90;;;;;;4993585;28;20501;-54
2021/03/29 06:04:49;;;;;;;15.15;9.18;;;9.20;82.90;;;;;;4996543;28;20057;-49
2021/03/29 06:07:19;;;;;;;19.42;10.38;;;9.30;83.00;;;;;;4999706;28;20125;-50
2021/03/29 06:09:49;;;;;;;17.05;8.05;;;9.30;83.10;;;;;;5002973;28;20116;-49
2021/03/29 06:12:17;;;;;;;16.25;8.43;;;9.30;82.70;;;;;;4995119;28;20054;-52
2021/03/29 06:14:44;;;;;;;14.23;7.88;;;9.30;82.80;;;;;;5004449;28;20684;-48
2021/03/29 06:17:22;;;;;;;24.98;12.23;;;9.40;82.70;;;;;;4988347;28;20133;-52
2021/03/29 06:20:00;;;;;;;17.15;10.55;;;9.50;82.70;;;;;;4990727;28;20072;-56
2021/03/29 06:22:40;;;;;;;12.98;7.18;;;9.40;82.70;;;;;;4994819;28;20050;-51
2021/03/29 06:25:12;;;;;;;18.25;8.65;;;9.50;82.20;;;;;;4998451;28;20046;-54
2021/03/29 06:27:48;;;;;;;13.88;7.28;;;9.50;82.60;;;;;;4999887;28;20050;-54
2021/03/29 06:30:26;;;;;;;13.90;7.00;;;9.60;82.80;;;;;;5001751;28;20046;-55
2021/03/29 06:32:56;;;;;;;12.63;7.30;;;9.70;82.10;;;;;;4999453;28;20050;-53
2021/03/29 06:35:29;;;;;;;14.85;6.70;;;9.80;82.10;;;;;;4990728;28;20082;-57
2021/03/29 06:38:25;;;;;;;16.33;6.75;;;9.80;81.90;;;;;;4994191;28;20057;-55
2021/03/29 06:40:51;;;;;;;14.95;6.38;;;9.90;81.40;;;;;;4991672;28;20046;-55
2021/03/29 06:43:18;;;;;;;15.13;8.32;;;10.00;81.40;;;;;;4998685;28;20050;-51
2021/03/29 06:45:51;;;;;;;13.10;6.78;;;10.20;80.70;;;;;;4994184;28;20411;-55
2021/03/29 06:48:26;;;;;;;14.02;6.47;;;10.30;79.80;;;;;;4992497;28;20069;-54
2021/03/29 06:51:14;;;;;;;12.43;6.70;;;10.40;79.40;;;;;;4999870;28;20054;-55
2021/03/29 06:54:10;;;;;;;13.70;5.90;;;10.50;79.30;;;;;;4987225;28;20126;-54
2021/03/29 06:56:45;;;;;;;13.80;5.60;;;10.60;78.20;;;;;;4990465;28;20137;-57
2021/03/29 06:59:16;;;;;;;10.18;5.53;;;10.80;78.30;;;;;;5033345;28;20091;-54
2021/03/29 07:02:05;;;;;;;12.75;5.38;;;10.90;78.50;;;;;;5028499;28;20049;-57
2021/03/29 07:04:32;;;;;;;11.50;5.63;;;11.00;77.10;;;;;;5034310;28;20122;-57
2021/03/29 07:07:03;;;;;;;14.15;7.75;;;11.20;77.30;;;;;;5028120;28;20076;-55
2021/03/29 07:09:34;;;;;;;15.80;7.13;;;11.50;76.30;;;;;;5004589;28;20044;-57
2021/03/29 07:12:08;;;;;;;16.20;6.50;;;11.50;74.90;;;;;;5038648;28;20395;-57
2021/03/29 07:14:36;;;;;;;11.85;5.45;;;11.60;75.30;;;;;;5028222;28;20071;-54
2021/03/29 07:17:11;;;;;;;12.52;5.95;;;11.60;74.40;;;;;;5035074;28;20045;-51
2021/03/29 07:19:49;;;;;;;12.88;5.22;;;11.80;74.00;;;;;;5022634;28;20081;-57
2021/03/29 07:22:18;;;;;;;10.27;4.97;;;12.00;73.30;;;;;;5028550;28;20069;-56
2021/03/29 07:24:48;;;;;;;13.73;5.25;;;12.20;73.40;;;;;;5010820;28;20064;-57
2021/03/29 07:27:18;;;;;;;12.63;5.35;;;12.40;72.40;;;;;;5027974;28;20271;-59
2021/03/29 07:29:49;;;;;;;18.30;9.57;;;12.40;71.60;;;;;;5037187;28;20107;-57
2021/03/29 07:32:28;;;;;;;14.32;5.75;;;12.70;70.70;;;;;;5028366;28;20041;-58
2021/03/29 07:34:55;;;;;;;12.48;5.60;;;13.00;69.80;;;;;;5027335;28;20573;-56
2021/03/29 07:37:35;;;;;;;11.00;6.07;;;12.90;69.60;;;;;;5028604;28;20037;-58
2021/03/29 07:40:37;;;;;;;10.90;4.90;;;12.80;69.60;;;;;;5027760;28;20041;-57
2021/03/29 07:43:15;;;;;;;12.25;5.88;;;12.90;69.40;;;;;;5026688;28;20490;-57
2021/03/29 07:46:00;;;;;;;13.45;5.30;;;12.90;69.80;;;;;;5027037;28;20535;-57
2021/03/29 07:48:37;;;;;;;11.50;5.15;;;13.10;70.20;;;;;;5008311;28;20072;-58
2021/03/29 07:51:08;;;;;;;9.40;4.47;;;13.10;68.80;;;;;;5020533;28;20079;-57
2021/03/29 07:53:50;;;;;;;11.05;4.70;;;13.40;69.30;;;;;;5027098;28;20506;-58
2021/03/29 07:56:45;;;;;;;10.35;4.40;;;13.40;68.00;;;;;;5028072;28;20098;-58
2021/03/29 07:59:12;;;;;;;13.23;5.10;;;13.50;68.60;;;;;;5025304;28;20065;-55
2021/03/29 08:01:59;;;;;;;17.75;11.00;;;13.50;68.60;;;;;;5021018;28;20049;-58
2021/03/29 08:05:03;;;;;;;23.85;13.95;;;13.50;68.30;;;;;;5026629;28;20049;-58
2021/03/29 08:07:44;;;;;;;12.38;5.18;;;14.00;67.30;;;;;;5024766;28;20053;-59
2021/03/29 08:10:13;;;;;;;14.00;4.72;;;13.90;67.10;;;;;;5025709;28;20460;-58
2021/03/29 08:13:02;;;;;;;13.25;5.45;;;14.20;68.10;;;;;;5022592;28;20140;-58
2021/03/29 08:16:03;;;;;;;11.75;4.72;;;14.10;66.30;;;;;;5023776;28;20520;-58
2021/03/29 08:18:50;;;;;;;12.23;4.57;;;14.30;66.10;;;;;;5009095;28;20422;-58
2021/03/29 08:21:40;;;;;;;14.02;4.85;;;14.50;67.10;;;;;;5026080;28;20041;-58
2021/03/29 08:24:15;;;;;;;13.82;4.95;;;14.70;65.10;;;;;;5028325;28;20041;-57
2021/03/29 08:26:41;;;;;;;12.63;4.55;;;14.90;65.50;;;;;;5010068;28;20072;-57
2021/03/29 08:29:07;;;;;;;14.75;4.63;;;15.00;64.60;;;;;;5026485;28;20076;-59
2021/03/29 08:32:04;;;;;;;16.83;5.72;;;15.20;63.30;;;;;;5026579;28;20480;-59
2021/03/29 08:34:42;;;;;;;10.02;4.68;;;15.30;63.10;;;;;;5032095;28;20132;-60
2021/03/29 08:37:11;;;;;;;11.68;4.97;;;15.60;63.50;;;;;;5024090;28;20072;-59
2021/03/29 08:39:43;;;;;;;15.55;4.65;;;15.90;63.40;;;;;;5025867;28;20156;-57
2021/03/29 08:42:15;;;;;;;13.23;5.03;;;15.40;62.30;;;;;;5008557;28;20099;-56
2021/03/29 08:44:46;;;;;;;30.30;18.10;;;15.20;63.40;;;;;;5030691;28;20049;-57
2021/03/29 08:47:23;;;;;;;14.90;6.85;;;15.30;64.20;;;;;;5026143;28;20509;-58
2021/03/29 08:50:04;;;;;;;12.07;4.88;;;15.30;62.70;;;;;;5024390;28;20544;-59
2021/03/29 08:53:01;;;;;;;13.30;5.30;;;15.40;62.40;;;;;;5024554;28;20053;-58
2021/03/29 08:55:34;;;;;;;12.98;5.65;;;15.30;63.20;;;;;;4934854;28;20556;-58
2021/03/29 08:58:01;;;;;;;15.70;6.68;;;15.60;62.50;;;;;;4942248;28;20056;-60
2021/03/29 09:00:33;;;;;;;12.98;5.60;;;15.80;62.60;;;;;;4937406;28;20062;-55
2021/03/29 09:03:03;;;;;;;17.27;5.57;;;15.80;62.20;;;;;;4941493;28;20062;-49
2021/03/29 09:05:34;;;;;;;20.20;10.70;;;15.90;61.60;;;;;;4936810;28;20051;-55
2021/03/29 09:08:10;;;;;;;17.73;10.20;;;16.30;62.00;;;;;;4931611;29;20094;-53
2021/03/29 09:10:39;;;;;;;14.43;5.65;;;16.10;60.70;;;;;;4930195;29;20084;-54
2021/03/29 09:13:10;;;;;;;14.10;6.07;;;16.30;61.50;;;;;;4932457;29;20055;-54
2021/03/29 09:15:41;;;;;;;16.20;5.85;;;16.30;60.70;;;;;;4915986;29;20099;-54
2021/03/29 09:18:11;;;;;;;12.30;4.78;;;16.20;61.30;;;;;;4930993;28;20146;-54
2021/03/29 09:20:43;;;;;;;13.77;4.82;;;16.30;60.40;;;;;;4945194;28;20051;-55
2021/03/29 09:23:14;;;;;;;16.38;5.45;;;16.20;61.40;;;;;;4935904;29;20060;-56
2021/03/29 09:25:47;;;;;;;9.82;4.63;;;16.50;61.10;;;;;;4929679;29;20048;-54
2021/03/29 09:31:19;;;;;;;13.07;4.95;;;17.10;60.00;;;;;;4954415;28;20133;-54
2021/03/29 09:33:51;;;;;;;12.45;5.20;;;17.10;59.80;;;;;;5005418;28;20060;-54
2021/03/29 09:36:25;;;;;;;14.30;5.15;;;17.30;59.50;;;;;;5000776;28;20503;-54
2021/03/29 09:38:58;;;;;;;13.35;5.38;;;17.80;58.90;;;;;;4997628;28;20056;-55
2021/03/29 09:41:32;;;;;;;11.52;4.90;;;17.20;58.50;;;;;;5005294;28;20507;-55
2021/03/29 09:44:04;;;;;;;13.40;5.20;;;17.50;58.60;;;;;;5000615;28;20054;-55
2021/03/29 09:46:37;;;;;;;17.45;4.95;;;17.60;59.10;;;;;;4990742;28;20054;-56
2021/03/29 09:49:16;;;;;;;11.32;4.55;;;17.40;57.70;;;;;;5005088;28;20054;-57
2021/03/29 09:51:45;;;;;;;13.25;4.97;;;17.30;57.20;;;;;;5004190;28;20129;-57
2021/03/29 09:54:22;;;;;;;10.10;4.80;;;17.60;57.90;;;;;;5004769;28;20050;-59
2021/03/29 09:57:15;;;;;;;17.92;7.80;;;17.60;57.30;;;;;;5000375;28;20053;-59
2021/03/29 09:59:44;;;;;;;15.90;7.78;;;18.10;56.70;;;;;;5023971;28;20112;-59
2021/03/29 10:02:13;;;;;;;14.45;6.18;;;18.50;56.80;;;;;;5028832;28;20405;-59
2021/03/29 10:04:43;;;;;;;15.52;7.82;;;18.10;56.80;;;;;;5027362;28;20148;-60
2021/03/29 10:07:17;;;;;;;15.57;7.18;;;17.60;57.50;;;;;;5023426;28;20074;-60
2021/03/29 10:09:50;;;;;;;14.07;6.35;;;18.20;57.60;;;;;;5023186;28;20056;-60
2021/03/29 10:12:27;;;;;;;13.57;6.30;;;18.20;56.30;;;;;;5021776;28;20144;-61
2021/03/29 10:15:12;;;;;;;15.13;6.05;;;18.50;55.90;;;;;;5026648;28;20064;-61
2021/03/29 10:17:46;;;;;;;13.88;6.03;;;18.60;55.80;;;;;;5025479;28;20512;-61
2021/03/29 10:20:16;;;;;;;12.52;5.32;;;18.50;56.90;;;;;;5023989;28;20554;-61
2021/03/29 10:22:53;;;;;;;18.27;6.50;;;18.60;55.80;;;;;;5006820;28;20144;-61
2021/03/29 10:25:25;;;;;;;13.45;5.60;;;18.10;55.50;;;;;;5025273;28;20076;-62
2021/03/29 10:27:58;;;;;;;16.02;6.28;;;18.30;55.90;;;;;;5023721;28;20583;-62
2021/03/29 10:30:37;;;;;;;15.07;6.15;;;18.40;56.00;;;;;;5025289;28;20080;-60
2021/03/29 10:33:12;;;;;;;11.50;5.32;;;18.50;55.40;;;;;;5024923;28;20057;-61
2021/03/29 10:35:44;;;;;;;11.85;6.10;;;18.50;55.60;;;;;;5007762;28;20060;-59
2021/03/29 10:38:10;;;;;;;39.22;32.67;;;18.80;55.60;;;;;;5026255;28;20128;-59
2021/03/29 10:40:36;;;;;;;16.02;7.15;;;19.00;54.60;;;;;;5025650;28;21997;-64
2021/03/29 10:43:01;;;;;;;11.82;6.00;;;18.70;55.30;;;;;;5033834;28;20764;-60
2021/03/29 10:45:27;;;;;;;15.73;8.13;;;18.90;55.00;;;;;;5024777;28;20052;-62
2021/03/29 10:47:56;;;;;;;18.33;7.25;;;19.20;53.60;;;;;;5026841;28;20075;-61
2021/03/29 10:50:25;;;;;;;10.60;5.80;;;19.30;54.60;;;;;;5028240;28;20430;-59
2021/03/29 10:52:57;;;;;;;17.48;7.00;;;19.80;54.00;;;;;;5024454;28;20053;-57
2021/03/29 10:55:24;;;;;;;16.95;6.90;;;19.90;53.50;;;;;;5024858;28;20049;-55
2021/03/29 10:57:52;;;;;;;11.63;6.32;;;19.50;53.40;;;;;;5021079;28;20407;-63
2021/03/29 11:00:19;;;;;;;14.38;5.70;;;19.60;52.80;;;;;;5028136;28;20045;-62
2021/03/29 11:02:46;;;;;;;13.52;6.95;;;19.60;52.60;;;;;;5026618;28;20065;-57
2021/03/29 11:05:17;;;;;;;15.80;6.40;;;19.80;53.30;;;;;;5023302;28;20064;-61
2021/03/29 11:07:46;;;;;;;;;;;19.50;52.40;;;;;;5025085;28;20072;-64
2021/03/29 11:10:23;;;;;;;14.80;6.05;;;19.00;53.20;;;;;;5025489;28;20296;-60
2021/03/29 11:12:52;;;;;;;12.98;5.75;;;18.80;54.60;;;;;;5003650;28;20569;-61
2021/03/29 11:15:20;;;;;;;14.98;6.00;;;19.10;53.60;;;;;;4995226;28;20060;-56
2021/03/29 11:17:52;;;;;;;14.13;6.00;;;19.00;54.40;;;;;;5011609;28;20497;-58
2021/03/29 11:20:20;;;;;;;11.80;5.78;;;19.60;53.50;;;;;;5022295;28;20046;-59
2021/03/29 11:22:48;;;;;;;13.40;6.72;;;19.50;52.90;;;;;;5024068;28;20076;-60
2021/03/29 11:25:19;;;;;;;16.52;5.90;;;19.60;53.10;;;;;;5028585;28;20057;-58
2021/03/29 11:27:47;;;;;;;14.27;6.35;;;20.00;52.90;;;;;;5022803;28;20053;-57
2021/03/29 11:30:16;;;;;;;13.30;6.63;;;20.20;52.30;;;;;;5022557;28;20052;-56
2021/03/29 11:33:07;;;;;;;15.52;6.50;;;20.50;52.10;;;;;;5027868;28;20088;-61
2021/03/29 11:35:39;;;;;;;17.60;7.10;;;20.60;52.00;;;;;;5027722;28;20053;-60
2021/03/29 11:38:16;;;;;;;14.70;6.55;;;20.60;52.30;;;;;;5021933;28;20049;-61
2021/03/29 11:40:44;;;;;;;15.40;6.78;;;20.80;51.90;;;;;;5023601;28;20480;-60
2021/03/29 11:43:14;;;;;;;13.63;6.57;;;20.90;50.70;;;;;;5030038;28;20037;-59
2021/03/29 11:45:46;;;;;;;13.80;6.47;;;20.10;50.90;;;;;;5025203;28;20057;-61
2021/03/29 11:48:15;;;;;;;10.43;5.72;;;20.60;50.50;;;;;;5023036;28;20140;-62
2021/03/29 11:50:47;;;;;;;16.20;9.43;;;20.30;51.10;;;;;;5024631;28;20057;-64
2021/03/29 11:53:18;;;;;;;13.63;7.90;;;20.10;51.40;;;;;;5015718;28;20049;-58
2021/03/29 11:55:47;;;;;;;20.50;8.30;;;20.10;52.70;;;;;;5006673;28;20061;-58
2021/03/29 11:58:19;;;;;;;13.60;7.03;;;20.60;51.40;;;;;;5022172;28;20451;-63
2021/03/29 12:01:04;;;;;;;13.80;6.70;;;21.00;51.00;;;;;;5026048;28;20682;-60
2021/03/29 12:03:39;;;;;;;15.48;6.05;;;20.90;50.90;;;;;;5033185;28;20057;-59
2021/03/29 12:06:19;;;;;;;14.95;7.57;;;21.10;51.50;;;;;;5024172;28;20127;-58
2021/03/29 12:09:00;;;;;;;15.30;6.97;;;21.00;49.40;;;;;;5025300;28;20049;-57
2021/03/29 12:11:52;;;;;;;14.32;6.30;;;21.30;50.10;;;;;;5022836;28;20045;-60
2021/03/29 12:14:24;;;;;;;13.70;6.85;;;21.20;49.80;;;;;;5025652;28;20512;-61
2021/03/29 12:16:52;;;;;;;15.20;6.45;;;21.40;50.20;;;;;;5022480;28;20053;-63
2021/03/29 12:19:26;;;;;;;16.65;5.75;;;21.60;49.90;;;;;;5020611;28;20080;-66
2021/03/29 12:21:59;;;;;;;14.20;6.22;;;22.00;48.70;;;;;;5019302;28;20064;-59
2021/03/29 12:24:33;;;;;;;29.38;22.25;;;21.80;48.90;;;;;;5023051;28;20049;-60
2021/03/29 12:27:02;;;;;;;16.42;9.23;;;21.20;49.40;;;;;;5007923;28;20061;-66
2021/03/29 12:32:21;;;;;;;13.40;7.15;;;21.60;49.50;;;;;;4963895;28;20078;-61
2021/03/29 12:34:55;;;;;;;13.45;6.53;;;21.50;48.80;;;;;;4962245;28;20062;-59
2021/03/29 12:37:31;;;;;;;15.77;7.47;;;22.00;48.50;;;;;;4962767;28;20059;-62
2021/03/29 12:40:19;;;;;;;12.57;6.53;;;21.50;48.40;;;;;;4963179;28;20057;-59
2021/03/29 12:43:12;;;;;;;12.05;6.00;;;21.60;48.60;;;;;;4966804;28;20109;-58
2021/03/29 12:45:42;;;;;;;12.23;6.10;;;21.70;48.90;;;;;;4945324;28;20073;-62
2021/03/29 12:48:11;;;;;;;15.13;7.68;;;21.50;48.30;;;;;;4955343;28;20832;-58
2021/03/29 12:50:42;;;;;;;13.73;7.53;;;21.80;48.70;;;;;;4964040;28;20066;-59
2021/03/29 12:53:19;;;;;;;10.45;6.60;;;22.00;48.30;;;;;;4963698;28;20125;-61
2021/03/29 12:55:50;;;;;;;12.57;8.07;;;23.00;47.40;;;;;;4962046;28;20527;-60
2021/03/29 12:58:22;;;;;;;12.77;5.97;;;23.20;46.10;;;;;;4963325;28;20058;-61
2021/03/29 13:00:49;;;;;;;12.05;6.97;;;22.50;44.60;;;;;;4962792;28;20145;-64
2021/03/29 13:03:17;;;;;;;12.23;6.68;;;22.60;46.90;;;;;;4962390;28;20146;-60
2021/03/29 13:05:58;;;;;;;22.77;15.63;;;22.40;46.30;;;;;;4951363;28;20057;-63
2021/03/29 13:08:27;;;;;;;19.48;11.75;;;22.30;46.50;;;;;;4973247;28;20053;-63
2021/03/29 13:13:31;;;;;;;11.40;6.07;;;22.70;45.60;;;;;;5007431;28;20045;-62
2021/03/29 13:15:57;;;;;;;12.00;6.07;;;22.60;46.60;;;;;;5025275;28;20132;-67
2021/03/29 13:18:26;;;;;;;12.63;5.50;;;22.40;46.40;;;;;;5024676;28;20888;-62
2021/03/29 13:20:53;;;;;;;9.77;5.20;;;22.30;46.00;;;;;;5022841;28;20093;-60